sensor_id;sensor_type;location;lat;lon;timestamp;P1;durP1;ratioP1;P2;durP2;ratioP2
19189;SDS011;9727;50.200;19.038;2023-06-26T00:01:24;6.93;;;5.50;;
19189;SDS011;9727;50.200;19.038;2023-06-26T00:03:54;8.53;;;5.33;;
19189;SDS011;9727;50.200;19.038;2023-06-26T00:06:21;9.03;;;5.83;;
19189;SDS011;9727;50.200;19.038;2023-06-26T00:08:50;8.07;;;5.30;;
19189;SDS011;9727;50.200;19.038;2023-06-26T00:11:17;9.80;;;5.70;;
19189;SDS011;9727;50.200;19.038;2023-06-26T00:13:45;8.37;;;4.93;;
19189;SDS011;9727;50.200;19.038;2023-06-26T00:16:14;6.73;;;4.93;;
19189;SDS011;9727;50.200;19.038;2023-06-26T00:18:40;7.37;;;5.03;;
19189;SDS011;9727;50.200;19.038;2023-06-26T00:21:07;7.50;;;4.90;;
19189;SDS011;9727;50.200;19.038;2023-06-26T00:23:34;7.77;;;4.80;;
19189;SDS011;9727;50.200;19.038;2023-06-26T00:26:02;8.80;;;5.53;;
19189;SDS011;9727;50.200;19.038;2023-06-26T00:28:28;7.40;;;4.97;;
19189;SDS011;9727;50.200;19.038;2023-06-26T00:30:56;10.37;;;5.40;;
19189;SDS011;9727;50.200;19.038;2023-06-26T00:33:23;6.53;;;4.93;;
19189;SDS011;9727;50.200;19.038;2023-06-26T00:35:49;8.67;;;5.07;;
19189;SDS011;9727;50.200;19.038;2023-06-26T00:38:16;7.87;;;4.77;;
19189;SDS011;9727;50.200;19.038;2023-06-26T00:40:43;7.73;;;5.60;;
19189;SDS011;9727;50.200;19.038;2023-06-26T00:43:09;9.73;;;5.97;;
19189;SDS011;9727;50.200;19.038;2023-06-26T00:45:39;9.80;;;5.30;;
19189;SDS011;9727;50.200;19.038;2023-06-26T00:48:07;8.57;;;5.80;;
19189;SDS011;9727;50.200;19.038;2023-06-26T00:50:37;7.30;;;5.50;;
19189;SDS011;9727;50.200;19.038;2023-06-26T00:53:04;8.17;;;5.60;;
19189;SDS011;9727;50.200;19.038;2023-06-26T00:55:31;7.97;;;5.80;;
19189;SDS011;9727;50.200;19.038;2023-06-26T00:57:57;9.53;;;5.80;;
19189;SDS011;9727;50.200;19.038;2023-06-26T01:00:24;10.33;;;6.40;;
19189;SDS011;9727;50.200;19.038;2023-06-26T01:02:51;11.37;;;6.43;;
19189;SDS011;9727;50.200;19.038;2023-06-26T01:05:19;13.87;;;6.97;;
19189;SDS011;9727;50.200;19.038;2023-06-26T01:07:47;13.93;;;7.73;;
19189;SDS011;9727;50.200;19.038;2023-06-26T01:10:14;14.67;;;7.60;;
19189;SDS011;9727;50.200;19.038;2023-06-26T01:12:41;17.30;;;8.60;;
19189;SDS011;9727;50.200;19.038;2023-06-26T01:15:08;18.00;;;8.10;;
19189;SDS011;9727;50.200;19.038;2023-06-26T01:17:36;16.40;;;8.43;;
19189;SDS011;9727;50.200;19.038;2023-06-26T01:20:04;14.73;;;7.90;;
19189;SDS011;9727;50.200;19.038;2023-06-26T01:22:34;16.67;;;8.80;;
19189;SDS011;9727;50.200;19.038;2023-06-26T01:25:16;17.57;;;8.10;;
19189;SDS011;9727;50.200;19.038;2023-06-26T01:27:45;17.67;;;8.33;;
19189;SDS011;9727;50.200;19.038;2023-06-26T01:30:13;18.30;;;8.37;;
19189;SDS011;9727;50.200;19.038;2023-06-26T01:32:40;11.93;;;7.13;;
19189;SDS011;9727;50.200;19.038;2023-06-26T01:35:07;12.80;;;7.37;;
19189;SDS011;9727;50.200;19.038;2023-06-26T01:37:35;12.17;;;6.67;;
19189;SDS011;9727;50.200;19.038;2023-06-26T01:40:05;13.40;;;6.97;;
19189;SDS011;9727;50.200;19.038;2023-06-26T01:42:31;10.93;;;7.20;;
19189;SDS011;9727;50.200;19.038;2023-06-26T01:44:59;10.80;;;6.20;;
19189;SDS011;9727;50.200;19.038;2023-06-26T01:47:29;10.07;;;6.13;;
19189;SDS011;9727;50.200;19.038;2023-06-26T01:49:59;10.80;;;7.37;;
19189;SDS011;9727;50.200;19.038;2023-06-26T01:52:27;12.57;;;7.13;;
19189;SDS011;9727;50.200;19.038;2023-06-26T01:54:56;13.00;;;7.33;;
19189;SDS011;9727;50.200;19.038;2023-06-26T01:57:23;12.03;;;6.87;;
19189;SDS011;9727;50.200;19.038;2023-06-26T01:59:53;12.00;;;6.83;;
19189;SDS011;9727;50.200;19.038;2023-06-26T02:02:22;11.90;;;6.33;;
19189;SDS011;9727;50.200;19.038;2023-06-26T02:04:49;11.77;;;6.27;;
19189;SDS011;9727;50.200;19.038;2023-06-26T02:07:16;11.07;;;7.10;;
19189;SDS011;9727;50.200;19.038;2023-06-26T02:09:43;10.97;;;6.27;;
19189;SDS011;9727;50.200;19.038;2023-06-26T02:12:09;12.57;;;7.03;;
19189;SDS011;9727;50.200;19.038;2023-06-26T02:14:39;11.17;;;6.57;;
19189;SDS011;9727;50.200;19.038;2023-06-26T02:17:06;11.43;;;7.20;;
19189;SDS011;9727;50.200;19.038;2023-06-26T02:19:37;9.43;;;6.67;;
19189;SDS011;9727;50.200;19.038;2023-06-26T02:22:13;10.10;;;7.17;;
19189;SDS011;9727;50.200;19.038;2023-06-26T02:24:40;11.80;;;7.77;;
19189;SDS011;9727;50.200;19.038;2023-06-26T02:27:08;10.33;;;7.47;;
19189;SDS011;9727;50.200;19.038;2023-06-26T02:29:35;9.57;;;7.23;;
19189;SDS011;9727;50.200;19.038;2023-06-26T02:32:03;9.10;;;7.10;;
19189;SDS011;9727;50.200;19.038;2023-06-26T02:34:30;9.63;;;7.43;;
19189;SDS011;9727;50.200;19.038;2023-06-26T02:36:58;10.90;;;7.43;;
19189;SDS011;9727;50.200;19.038;2023-06-26T02:39:25;11.73;;;7.40;;
19189;SDS011;9727;50.200;19.038;2023-06-26T02:41:52;11.80;;;8.00;;
19189;SDS011;9727;50.200;19.038;2023-06-26T02:44:18;11.17;;;7.30;;
19189;SDS011;9727;50.200;19.038;2023-06-26T02:46:46;13.33;;;7.60;;
19189;SDS011;9727;50.200;19.038;2023-06-26T02:49:15;12.10;;;7.40;;
19189;SDS011;9727;50.200;19.038;2023-06-26T02:51:42;10.33;;;7.17;;
19189;SDS011;9727;50.200;19.038;2023-06-26T02:54:10;10.20;;;7.13;;
19189;SDS011;9727;50.200;19.038;2023-06-26T02:56:39;9.73;;;7.23;;
19189;SDS011;9727;50.200;19.038;2023-06-26T02:59:06;10.23;;;7.40;;
19189;SDS011;9727;50.200;19.038;2023-06-26T03:01:34;10.57;;;7.53;;
19189;SDS011;9727;50.200;19.038;2023-06-26T03:04:00;11.73;;;7.80;;
19189;SDS011;9727;50.200;19.038;2023-06-26T03:06:27;11.07;;;7.50;;
19189;SDS011;9727;50.200;19.038;2023-06-26T03:08:53;11.33;;;6.97;;
19189;SDS011;9727;50.200;19.038;2023-06-26T03:11:21;10.03;;;6.90;;
19189;SDS011;9727;50.200;19.038;2023-06-26T03:13:48;11.43;;;8.03;;
19189;SDS011;9727;50.200;19.038;2023-06-26T03:16:14;9.30;;;7.80;;
19189;SDS011;9727;50.200;19.038;2023-06-26T03:18:41;9.50;;;7.20;;
19189;SDS011;9727;50.200;19.038;2023-06-26T03:21:08;9.63;;;7.40;;
19189;SDS011;9727;50.200;19.038;2023-06-26T03:23:35;10.17;;;7.23;;
19189;SDS011;9727;50.200;19.038;2023-06-26T03:26:01;10.63;;;7.43;;
19189;SDS011;9727;50.200;19.038;2023-06-26T03:28:30;11.10;;;7.30;;
19189;SDS011;9727;50.200;19.038;2023-06-26T03:30:57;11.63;;;8.03;;
19189;SDS011;9727;50.200;19.038;2023-06-26T03:33:24;10.77;;;7.43;;
19189;SDS011;9727;50.200;19.038;2023-06-26T03:35:51;13.73;;;7.87;;
19189;SDS011;9727;50.200;19.038;2023-06-26T03:38:18;11.67;;;6.97;;
19189;SDS011;9727;50.200;19.038;2023-06-26T03:40:45;10.13;;;7.60;;
19189;SDS011;9727;50.200;19.038;2023-06-26T03:43:15;9.57;;;7.53;;
19189;SDS011;9727;50.200;19.038;2023-06-26T03:45:43;8.90;;;6.90;;
19189;SDS011;9727;50.200;19.038;2023-06-26T03:48:10;12.00;;;7.63;;
19189;SDS011;9727;50.200;19.038;2023-06-26T03:50:39;12.17;;;7.93;;
19189;SDS011;9727;50.200;19.038;2023-06-26T03:53:06;11.77;;;7.30;;
19189;SDS011;9727;50.200;19.038;2023-06-26T03:55:32;9.53;;;7.27;;
19189;SDS011;9727;50.200;19.038;2023-06-26T03:57:59;10.03;;;7.50;;
19189;SDS011;9727;50.200;19.038;2023-06-26T04:00:26;12.83;;;7.70;;
19189;SDS011;9727;50.200;19.038;2023-06-26T04:02:55;9.83;;;7.23;;
19189;SDS011;9727;50.200;19.038;2023-06-26T04:05:22;12.10;;;7.30;;
19189;SDS011;9727;50.200;19.038;2023-06-26T04:07:49;10.07;;;7.60;;
19189;SDS011;9727;50.200;19.038;2023-06-26T04:10:16;9.87;;;7.50;;
19189;SDS011;9727;50.200;19.038;2023-06-26T04:12:42;12.17;;;7.53;;
19189;SDS011;9727;50.200;19.038;2023-06-26T04:15:09;12.77;;;7.87;;
19189;SDS011;9727;50.200;19.038;2023-06-26T04:17:36;13.23;;;8.33;;
19189;SDS011;9727;50.200;19.038;2023-06-26T04:20:04;13.17;;;7.90;;
19189;SDS011;9727;50.200;19.038;2023-06-26T04:22:32;10.73;;;7.70;;
19189;SDS011;9727;50.200;19.038;2023-06-26T04:25:01;10.00;;;7.43;;
19189;SDS011;9727;50.200;19.038;2023-06-26T04:27:29;10.57;;;7.30;;
19189;SDS011;9727;50.200;19.038;2023-06-26T04:29:55;11.13;;;7.47;;
19189;SDS011;9727;50.200;19.038;2023-06-26T04:32:22;12.53;;;7.93;;
19189;SDS011;9727;50.200;19.038;2023-06-26T04:34:48;11.57;;;7.93;;
19189;SDS011;9727;50.200;19.038;2023-06-26T04:37:16;12.33;;;8.63;;
19189;SDS011;9727;50.200;19.038;2023-06-26T04:39:43;12.30;;;7.93;;
19189;SDS011;9727;50.200;19.038;2023-06-26T04:42:10;13.00;;;9.17;;
19189;SDS011;9727;50.200;19.038;2023-06-26T04:44:40;12.77;;;8.47;;
19189;SDS011;9727;50.200;19.038;2023-06-26T04:47:07;12.67;;;9.13;;
19189;SDS011;9727;50.200;19.038;2023-06-26T04:49:34;12.93;;;9.13;;
19189;SDS011;9727;50.200;19.038;2023-06-26T04:52:01;15.67;;;9.93;;
19189;SDS011;9727;50.200;19.038;2023-06-26T04:54:30;13.77;;;9.63;;
19189;SDS011;9727;50.200;19.038;2023-06-26T04:56:56;14.20;;;9.93;;
19189;SDS011;9727;50.200;19.038;2023-06-26T04:59:25;14.50;;;9.77;;
19189;SDS011;9727;50.200;19.038;2023-06-26T05:01:51;12.77;;;9.50;;
19189;SDS011;9727;50.200;19.038;2023-06-26T05:04:18;16.93;;;10.37;;
19189;SDS011;9727;50.200;19.038;2023-06-26T05:06:45;13.97;;;9.23;;
19189;SDS011;9727;50.200;19.038;2023-06-26T05:09:15;14.20;;;9.63;;
19189;SDS011;9727;50.200;19.038;2023-06-26T05:11:43;13.83;;;9.13;;
19189;SDS011;9727;50.200;19.038;2023-06-26T05:14:10;13.20;;;8.90;;
19189;SDS011;9727;50.200;19.038;2023-06-26T05:16:39;12.17;;;8.47;;
19189;SDS011;9727;50.200;19.038;2023-06-26T05:19:05;13.73;;;8.50;;
19189;SDS011;9727;50.200;19.038;2023-06-26T05:21:32;12.03;;;8.03;;
19189;SDS011;9727;50.200;19.038;2023-06-26T05:24:00;15.90;;;7.77;;
19189;SDS011;9727;50.200;19.038;2023-06-26T05:26:32;10.93;;;7.57;;
19189;SDS011;9727;50.200;19.038;2023-06-26T05:29:01;9.10;;;7.10;;
19189;SDS011;9727;50.200;19.038;2023-06-26T05:31:27;13.27;;;8.53;;
19189;SDS011;9727;50.200;19.038;2023-06-26T05:33:55;12.73;;;8.10;;
19189;SDS011;9727;50.200;19.038;2023-06-26T05:36:24;11.77;;;7.90;;
19189;SDS011;9727;50.200;19.038;2023-06-26T05:38:54;12.63;;;8.20;;
19189;SDS011;9727;50.200;19.038;2023-06-26T05:41:21;11.70;;;8.17;;
19189;SDS011;9727;50.200;19.038;2023-06-26T05:43:48;10.80;;;7.83;;
19189;SDS011;9727;50.200;19.038;2023-06-26T05:46:17;9.90;;;7.60;;
19189;SDS011;9727;50.200;19.038;2023-06-26T05:48:43;14.18;;;8.80;;
19189;SDS011;9727;50.200;19.038;2023-06-26T05:51:10;13.70;;;8.40;;
19189;SDS011;9727;50.200;19.038;2023-06-26T05:53:41;13.35;;;8.80;;
19189;SDS011;9727;50.200;19.038;2023-06-26T05:56:09;11.88;;;8.20;;
19189;SDS011;9727;50.200;19.038;2023-06-26T05:58:36;11.75;;;8.32;;
19189;SDS011;9727;50.200;19.038;2023-06-26T06:01:04;12.68;;;9.20;;
19189;SDS011;9727;50.200;19.038;2023-06-26T06:03:35;16.08;;;8.80;;
19189;SDS011;9727;50.200;19.038;2023-06-26T06:06:02;12.77;;;8.43;;
19189;SDS011;9727;50.200;19.038;2023-06-26T06:08:30;12.23;;;7.90;;
19189;SDS011;9727;50.200;19.038;2023-06-26T06:10:56;10.98;;;7.72;;
19189;SDS011;9727;50.200;19.038;2023-06-26T06:13:26;13.07;;;8.38;;
19189;SDS011;9727;50.200;19.038;2023-06-26T06:16:04;11.93;;;8.10;;
19189;SDS011;9727;50.200;19.038;2023-06-26T06:18:33;13.05;;;8.10;;
19189;SDS011;9727;50.200;19.038;2023-06-26T06:21:01;10.68;;;8.25;;
19189;SDS011;9727;50.200;19.038;2023-06-26T06:23:31;14.88;;;9.55;;
19189;SDS011;9727;50.200;19.038;2023-06-26T06:25:58;12.98;;;9.13;;
19189;SDS011;9727;50.200;19.038;2023-06-26T06:28:24;15.00;;;8.70;;
19189;SDS011;9727;50.200;19.038;2023-06-26T06:30:51;15.18;;;9.27;;
19189;SDS011;9727;50.200;19.038;2023-06-26T06:33:18;13.30;;;9.10;;
19189;SDS011;9727;50.200;19.038;2023-06-26T06:35:45;12.70;;;8.35;;
19189;SDS011;9727;50.200;19.038;2023-06-26T06:38:19;15.93;;;8.68;;
19189;SDS011;9727;50.200;19.038;2023-06-26T06:40:46;11.80;;;8.52;;
19189;SDS011;9727;50.200;19.038;2023-06-26T06:43:16;13.85;;;10.68;;
19189;SDS011;9727;50.200;19.038;2023-06-26T06:45:43;11.27;;;9.07;;
19189;SDS011;9727;50.200;19.038;2023-06-26T06:48:09;12.70;;;8.15;;
19189;SDS011;9727;50.200;19.038;2023-06-26T06:50:40;14.55;;;9.00;;
19189;SDS011;9727;50.200;19.038;2023-06-26T06:53:07;14.43;;;9.90;;
19189;SDS011;9727;50.200;19.038;2023-06-26T06:55:35;13.15;;;8.60;;
19189;SDS011;9727;50.200;19.038;2023-06-26T06:58:02;12.65;;;8.98;;
19189;SDS011;9727;50.200;19.038;2023-06-26T07:00:29;13.55;;;9.20;;
19189;SDS011;9727;50.200;19.038;2023-06-26T07:02:56;11.70;;;8.02;;
19189;SDS011;9727;50.200;19.038;2023-06-26T07:05:25;13.70;;;9.20;;
19189;SDS011;9727;50.200;19.038;2023-06-26T07:07:52;12.00;;;7.95;;
19189;SDS011;9727;50.200;19.038;2023-06-26T07:10:18;11.45;;;8.38;;
19189;SDS011;9727;50.200;19.038;2023-06-26T07:12:46;13.02;;;8.82;;
19189;SDS011;9727;50.200;19.038;2023-06-26T07:15:14;12.32;;;8.43;;
19189;SDS011;9727;50.200;19.038;2023-06-26T07:17:40;16.15;;;8.55;;
19189;SDS011;9727;50.200;19.038;2023-06-26T07:20:07;11.27;;;7.32;;
19189;SDS011;9727;50.200;19.038;2023-06-26T07:22:35;10.48;;;7.95;;
19189;SDS011;9727;50.200;19.038;2023-06-26T07:25:02;9.77;;;7.28;;
19189;SDS011;9727;50.200;19.038;2023-06-26T07:27:30;9.43;;;7.03;;
19189;SDS011;9727;50.200;19.038;2023-06-26T07:29:58;10.85;;;8.18;;
19189;SDS011;9727;50.200;19.038;2023-06-26T07:32:25;9.32;;;7.03;;
19189;SDS011;9727;50.200;19.038;2023-06-26T07:34:51;11.48;;;7.60;;
19189;SDS011;9727;50.200;19.038;2023-06-26T07:37:18;10.00;;;7.72;;
19189;SDS011;9727;50.200;19.038;2023-06-26T07:39:45;10.98;;;7.47;;
19189;SDS011;9727;50.200;19.038;2023-06-26T07:42:14;9.68;;;6.93;;
19189;SDS011;9727;50.200;19.038;2023-06-26T07:44:41;10.40;;;7.32;;
19189;SDS011;9727;50.200;19.038;2023-06-26T07:47:10;11.52;;;7.35;;
19189;SDS011;9727;50.200;19.038;2023-06-26T07:49:39;9.95;;;6.28;;
19189;SDS011;9727;50.200;19.038;2023-06-26T07:52:06;9.07;;;7.05;;
19189;SDS011;9727;50.200;19.038;2023-06-26T07:54:35;9.10;;;6.90;;
19189;SDS011;9727;50.200;19.038;2023-06-26T07:57:03;7.80;;;6.25;;
19189;SDS011;9727;50.200;19.038;2023-06-26T07:59:32;8.77;;;6.95;;
19189;SDS011;9727;50.200;19.038;2023-06-26T08:01:59;11.88;;;6.63;;
19189;SDS011;9727;50.200;19.038;2023-06-26T08:04:28;8.40;;;6.57;;
19189;SDS011;9727;50.200;19.038;2023-06-26T08:06:57;8.88;;;6.43;;
19189;SDS011;9727;50.200;19.038;2023-06-26T08:09:25;9.20;;;6.38;;
19189;SDS011;9727;50.200;19.038;2023-06-26T08:11:51;11.35;;;6.28;;
19189;SDS011;9727;50.200;19.038;2023-06-26T08:14:18;8.77;;;6.25;;
19189;SDS011;9727;50.200;19.038;2023-06-26T08:16:45;7.20;;;5.55;;
19189;SDS011;9727;50.200;19.038;2023-06-26T08:19:15;8.57;;;6.22;;
19189;SDS011;9727;50.200;19.038;2023-06-26T08:21:44;7.25;;;5.65;;
19189;SDS011;9727;50.200;19.038;2023-06-26T08:24:14;12.27;;;6.28;;
19189;SDS011;9727;50.200;19.038;2023-06-26T08:26:44;6.68;;;5.53;;
19189;SDS011;9727;50.200;19.038;2023-06-26T08:29:11;7.43;;;5.47;;
19189;SDS011;9727;50.200;19.038;2023-06-26T08:31:41;6.78;;;4.75;;
19189;SDS011;9727;50.200;19.038;2023-06-26T08:34:08;6.57;;;4.95;;
19189;SDS011;9727;50.200;19.038;2023-06-26T08:36:35;7.68;;;5.25;;
19189;SDS011;9727;50.200;19.038;2023-06-26T08:39:03;8.32;;;5.03;;
19189;SDS011;9727;50.200;19.038;2023-06-26T08:41:30;7.97;;;4.72;;
19189;SDS011;9727;50.200;19.038;2023-06-26T08:43:57;6.55;;;5.00;;
19189;SDS011;9727;50.200;19.038;2023-06-26T08:46:24;8.40;;;5.53;;
19189;SDS011;9727;50.200;19.038;2023-06-26T08:48:52;7.15;;;4.50;;
19189;SDS011;9727;50.200;19.038;2023-06-26T08:51:21;5.22;;;4.40;;
19189;SDS011;9727;50.200;19.038;2023-06-26T08:53:52;7.20;;;5.20;;
19189;SDS011;9727;50.200;19.038;2023-06-26T08:56:23;8.07;;;5.57;;
19189;SDS011;9727;50.200;19.038;2023-06-26T08:58:50;6.03;;;4.45;;
19189;SDS011;9727;50.200;19.038;2023-06-26T09:01:17;5.78;;;5.10;;
19189;SDS011;9727;50.200;19.038;2023-06-26T09:03:44;5.78;;;4.43;;
19189;SDS011;9727;50.200;19.038;2023-06-26T09:06:14;7.82;;;4.80;;
19189;SDS011;9727;50.200;19.038;2023-06-26T09:08:41;5.72;;;4.90;;
19189;SDS011;9727;50.200;19.038;2023-06-26T09:11:08;6.95;;;4.80;;
19189;SDS011;9727;50.200;19.038;2023-06-26T09:13:36;6.05;;;4.93;;
19189;SDS011;9727;50.200;19.038;2023-06-26T09:16:04;6.00;;;5.35;;
19189;SDS011;9727;50.200;19.038;2023-06-26T09:18:33;7.70;;;5.60;;
19189;SDS011;9727;50.200;19.038;2023-06-26T09:20:59;7.30;;;5.53;;
19189;SDS011;9727;50.200;19.038;2023-06-26T09:23:27;7.55;;;5.93;;
19189;SDS011;9727;50.200;19.038;2023-06-26T09:25:53;6.63;;;5.72;;
19189;SDS011;9727;50.200;19.038;2023-06-26T09:28:21;8.18;;;5.63;;
19189;SDS011;9727;50.200;19.038;2023-06-26T09:30:49;8.00;;;5.22;;
19189;SDS011;9727;50.200;19.038;2023-06-26T09:33:17;6.80;;;5.32;;
19189;SDS011;9727;50.200;19.038;2023-06-26T09:35:47;7.00;;;5.50;;
19189;SDS011;9727;50.200;19.038;2023-06-26T09:38:14;10.85;;;5.78;;
19189;SDS011;9727;50.200;19.038;2023-06-26T09:40:43;7.13;;;5.18;;
19189;SDS011;9727;50.200;19.038;2023-06-26T09:46:21;7.72;;;5.35;;
19189;SDS011;9727;50.200;19.038;2023-06-26T09:48:53;12.93;;;6.00;;
19189;SDS011;9727;50.200;19.038;2023-06-26T09:51:23;11.82;;;5.78;;
19189;SDS011;9727;50.200;19.038;2023-06-26T09:53:50;8.48;;;5.78;;
19189;SDS011;9727;50.200;19.038;2023-06-26T09:56:17;8.60;;;5.88;;
19189;SDS011;9727;50.200;19.038;2023-06-26T09:58:44;7.47;;;5.57;;
19189;SDS011;9727;50.200;19.038;2023-06-26T10:01:10;8.23;;;5.63;;
19189;SDS011;9727;50.200;19.038;2023-06-26T10:03:47;6.60;;;5.20;;
19189;SDS011;9727;50.200;19.038;2023-06-26T10:06:14;8.30;;;5.40;;
19189;SDS011;9727;50.200;19.038;2023-06-26T10:08:41;7.70;;;5.28;;
19189;SDS011;9727;50.200;19.038;2023-06-26T10:11:11;6.50;;;5.07;;
19189;SDS011;9727;50.200;19.038;2023-06-26T10:13:42;9.07;;;6.13;;
19189;SDS011;9727;50.200;19.038;2023-06-26T10:16:14;11.63;;;6.10;;
19189;SDS011;9727;50.200;19.038;2023-06-26T10:18:42;5.53;;;4.93;;
19189;SDS011;9727;50.200;19.038;2023-06-26T10:21:15;9.05;;;5.63;;
19189;SDS011;9727;50.200;19.038;2023-06-26T10:23:43;6.82;;;4.97;;
19189;SDS011;9727;50.200;19.038;2023-06-26T10:26:15;7.68;;;5.10;;
19189;SDS011;9727;50.200;19.038;2023-06-26T10:28:43;6.55;;;4.88;;
19189;SDS011;9727;50.200;19.038;2023-06-26T10:31:13;5.82;;;5.15;;
19189;SDS011;9727;50.200;19.038;2023-06-26T10:33:42;6.68;;;5.30;;
19189;SDS011;9727;50.200;19.038;2023-06-26T10:36:19;7.35;;;5.35;;
19189;SDS011;9727;50.200;19.038;2023-06-26T10:38:50;8.02;;;5.07;;
19189;SDS011;9727;50.200;19.038;2023-06-26T10:41:19;8.70;;;5.60;;
19189;SDS011;9727;50.200;19.038;2023-06-26T10:43:48;6.50;;;4.80;;
19189;SDS011;9727;50.200;19.038;2023-06-26T10:46:16;7.28;;;5.03;;
19189;SDS011;9727;50.200;19.038;2023-06-26T10:48:58;7.25;;;5.60;;
19189;SDS011;9727;50.200;19.038;2023-06-26T10:51:29;6.10;;;5.47;;
19189;SDS011;9727;50.200;19.038;2023-06-26T10:53:56;8.95;;;5.10;;
19189;SDS011;9727;50.200;19.038;2023-06-26T10:59:14;7.70;;;5.03;;
19189;SDS011;9727;50.200;19.038;2023-06-26T11:01:42;6.18;;;4.78;;
19189;SDS011;9727;50.200;19.038;2023-06-26T11:04:17;6.50;;;4.78;;
19189;SDS011;9727;50.200;19.038;2023-06-26T11:06:49;5.88;;;4.70;;
19189;SDS011;9727;50.200;19.038;2023-06-26T11:09:53;7.30;;;4.90;;
19189;SDS011;9727;50.200;19.038;2023-06-26T11:12:33;7.30;;;5.03;;
19189;SDS011;9727;50.200;19.038;2023-06-26T11:15:00;5.60;;;4.38;;
19189;SDS011;9727;50.200;19.038;2023-06-26T11:17:28;6.00;;;4.72;;
19189;SDS011;9727;50.200;19.038;2023-06-26T11:19:59;6.90;;;5.10;;
19189;SDS011;9727;50.200;19.038;2023-06-26T11:22:28;7.18;;;4.57;;
19189;SDS011;9727;50.200;19.038;2023-06-26T11:24:59;9.65;;;4.60;;
19189;SDS011;9727;50.200;19.038;2023-06-26T11:27:30;6.15;;;4.40;;
19189;SDS011;9727;50.200;19.038;2023-06-26T11:29:57;5.45;;;4.55;;
19189;SDS011;9727;50.200;19.038;2023-06-26T11:32:25;5.53;;;4.28;;
19189;SDS011;9727;50.200;19.038;2023-06-26T11:34:53;6.05;;;4.30;;
19189;SDS011;9727;50.200;19.038;2023-06-26T11:37:21;8.00;;;4.78;;
19189;SDS011;9727;50.200;19.038;2023-06-26T11:39:49;9.18;;;4.45;;
19189;SDS011;9727;50.200;19.038;2023-06-26T11:42:17;8.95;;;5.10;;
19189;SDS011;9727;50.200;19.038;2023-06-26T11:44:44;5.38;;;4.35;;
19189;SDS011;9727;50.200;19.038;2023-06-26T11:47:16;6.90;;;5.13;;
19189;SDS011;9727;50.200;19.038;2023-06-26T11:49:46;5.35;;;4.65;;
19189;SDS011;9727;50.200;19.038;2023-06-26T11:52:14;5.35;;;4.85;;
19189;SDS011;9727;50.200;19.038;2023-06-26T11:54:42;6.05;;;4.47;;
19189;SDS011;9727;50.200;19.038;2023-06-26T11:57:16;7.35;;;5.32;;
19189;SDS011;9727;50.200;19.038;2023-06-26T11:59:44;6.20;;;4.60;;
19189;SDS011;9727;50.200;19.038;2023-06-26T12:02:15;6.22;;;5.05;;
19189;SDS011;9727;50.200;19.038;2023-06-26T12:04:43;4.68;;;4.28;;
19189;SDS011;9727;50.200;19.038;2023-06-26T12:07:14;9.57;;;4.80;;
19189;SDS011;9727;50.200;19.038;2023-06-26T12:09:42;5.28;;;4.78;;
19189;SDS011;9727;50.200;19.038;2023-06-26T12:12:19;4.85;;;4.40;;
19189;SDS011;9727;50.200;19.038;2023-06-26T12:14:47;5.13;;;4.60;;
19189;SDS011;9727;50.200;19.038;2023-06-26T12:17:14;7.43;;;4.60;;
19189;SDS011;9727;50.200;19.038;2023-06-26T12:19:43;6.03;;;4.25;;
19189;SDS011;9727;50.200;19.038;2023-06-26T12:22:16;4.72;;;4.32;;
19189;SDS011;9727;50.200;19.038;2023-06-26T12:24:44;6.38;;;4.65;;
19189;SDS011;9727;50.200;19.038;2023-06-26T12:27:16;6.78;;;5.18;;
19189;SDS011;9727;50.200;19.038;2023-06-26T12:29:49;5.28;;;4.63;;
19189;SDS011;9727;50.200;19.038;2023-06-26T12:32:17;5.68;;;4.53;;
19189;SDS011;9727;50.200;19.038;2023-06-26T12:34:46;7.63;;;4.78;;
19189;SDS011;9727;50.200;19.038;2023-06-26T12:37:16;8.65;;;5.22;;
19189;SDS011;9727;50.200;19.038;2023-06-26T12:39:47;5.32;;;4.50;;
19189;SDS011;9727;50.200;19.038;2023-06-26T12:42:16;6.43;;;4.53;;
19189;SDS011;9727;50.200;19.038;2023-06-26T12:44:44;6.63;;;4.57;;
19189;SDS011;9727;50.200;19.038;2023-06-26T12:47:19;5.35;;;4.78;;
19189;SDS011;9727;50.200;19.038;2023-06-26T12:49:50;5.43;;;4.25;;
19189;SDS011;9727;50.200;19.038;2023-06-26T12:52:18;7.88;;;4.30;;
19189;SDS011;9727;50.200;19.038;2023-06-26T12:54:47;6.07;;;4.65;;
19189;SDS011;9727;50.200;19.038;2023-06-26T12:57:19;5.85;;;4.82;;
19189;SDS011;9727;50.200;19.038;2023-06-26T12:59:47;6.07;;;4.43;;
19189;SDS011;9727;50.200;19.038;2023-06-26T13:02:19;4.82;;;4.32;;
19189;SDS011;9727;50.200;19.038;2023-06-26T13:04:46;5.82;;;4.85;;
19189;SDS011;9727;50.200;19.038;2023-06-26T13:07:17;4.97;;;4.03;;
19189;SDS011;9727;50.200;19.038;2023-06-26T13:09:45;5.07;;;4.57;;
19189;SDS011;9727;50.200;19.038;2023-06-26T13:12:14;5.35;;;4.60;;
19189;SDS011;9727;50.200;19.038;2023-06-26T13:14:42;5.40;;;4.57;;
19189;SDS011;9727;50.200;19.038;2023-06-26T13:17:10;5.00;;;4.50;;
19189;SDS011;9727;50.200;19.038;2023-06-26T13:19:45;4.80;;;4.38;;
19189;SDS011;9727;50.200;19.038;2023-06-26T13:22:16;4.78;;;4.22;;
19189;SDS011;9727;50.200;19.038;2023-06-26T13:24:45;5.70;;;4.57;;
19189;SDS011;9727;50.200;19.038;2023-06-26T13:27:16;5.45;;;4.57;;
19189;SDS011;9727;50.200;19.038;2023-06-26T13:29:44;4.95;;;4.25;;
19189;SDS011;9727;50.200;19.038;2023-06-26T13:32:14;6.50;;;4.70;;
19189;SDS011;9727;50.200;19.038;2023-06-26T13:34:45;5.32;;;4.70;;
19189;SDS011;9727;50.200;19.038;2023-06-26T13:37:13;4.70;;;4.18;;
19189;SDS011;9727;50.200;19.038;2023-06-26T13:39:41;5.43;;;4.88;;
19189;SDS011;9727;50.200;19.038;2023-06-26T13:42:14;6.32;;;5.63;;
19189;SDS011;9727;50.200;19.038;2023-06-26T13:44:42;5.03;;;4.38;;
19189;SDS011;9727;50.200;19.038;2023-06-26T13:47:12;5.15;;;4.18;;
19189;SDS011;9727;50.200;19.038;2023-06-26T13:49:46;7.72;;;4.78;;
19189;SDS011;9727;50.200;19.038;2023-06-26T13:52:14;4.85;;;4.35;;
19189;SDS011;9727;50.200;19.038;2023-06-26T13:54:42;5.70;;;4.57;;
19189;SDS011;9727;50.200;19.038;2023-06-26T13:57:09;5.07;;;4.57;;
19189;SDS011;9727;50.200;19.038;2023-06-26T13:59:36;5.85;;;4.75;;
19189;SDS011;9727;50.200;19.038;2023-06-26T14:02:06;5.47;;;4.40;;
19189;SDS011;9727;50.200;19.038;2023-06-26T14:04:34;5.03;;;4.30;;
19189;SDS011;9727;50.200;19.038;2023-06-26T14:07:04;4.70;;;4.20;;
19189;SDS011;9727;50.200;19.038;2023-06-26T14:09:32;5.65;;;4.22;;
19189;SDS011;9727;50.200;19.038;2023-06-26T14:12:00;4.63;;;4.07;;
19189;SDS011;9727;50.200;19.038;2023-06-26T14:14:27;6.22;;;4.57;;
19189;SDS011;9727;50.200;19.038;2023-06-26T14:16:57;6.53;;;4.47;;
19189;SDS011;9727;50.200;19.038;2023-06-26T14:19:24;4.88;;;4.38;;
19189;SDS011;9727;50.200;19.038;2023-06-26T14:21:52;5.25;;;4.38;;
19189;SDS011;9727;50.200;19.038;2023-06-26T14:24:28;7.32;;;4.85;;
19189;SDS011;9727;50.200;19.038;2023-06-26T14:26:56;5.13;;;4.60;;
19189;SDS011;9727;50.200;19.038;2023-06-26T14:29:23;5.03;;;4.53;;
19189;SDS011;9727;50.200;19.038;2023-06-26T14:31:51;4.57;;;3.92;;
19189;SDS011;9727;50.200;19.038;2023-06-26T14:34:20;8.23;;;4.32;;
19189;SDS011;9727;50.200;19.038;2023-06-26T14:36:48;6.13;;;4.25;;
19189;SDS011;9727;50.200;19.038;2023-06-26T14:39:16;4.60;;;4.15;;
19189;SDS011;9727;50.200;19.038;2023-06-26T14:41:46;6.40;;;4.22;;
19189;SDS011;9727;50.200;19.038;2023-06-26T14:44:14;4.90;;;4.20;;
19189;SDS011;9727;50.200;19.038;2023-06-26T14:46:42;5.03;;;4.53;;
19189;SDS011;9727;50.200;19.038;2023-06-26T14:49:10;4.97;;;4.45;;
19189;SDS011;9727;50.200;19.038;2023-06-26T14:51:40;5.30;;;3.85;;
19189;SDS011;9727;50.200;19.038;2023-06-26T14:54:08;4.95;;;4.22;;
19189;SDS011;9727;50.200;19.038;2023-06-26T14:56:35;4.45;;;4.05;;